Time;durP1;ratioP1;P1;durP2;ratioP2;P2;SDS_P1;SDS_P2;PMS_P1;PMS_P2;Temp;Humidity;BMP_temperature;BMP_pressure;BME280_temperature;BME280_humidity;BME280_pressure;Samples;Min_cycle;Max_cycle;Signal;HPM_P1;HPM_P2
2022/07/22 00:00:52;;;;;;;7.80;4.50;;;;;;;18.62;64.46;100182.16;130186;1266;108863;-74
2022/07/22 00:03:57;;;;;;;7.90;5.00;;;;;;;18.61;64.56;100176.46;130222;1267;108812;-75
2022/07/22 00:07:03;;;;;;;5.80;4.50;;;;;;;18.60;64.58;100175.05;130244;1266;109144;-76
2022/07/22 00:10:11;;;;;;;5.50;4.50;;;;;;;18.56;64.65;100175.84;130250;1267;108775;-76
2022/07/22 00:13:17;;;;;;;6.00;4.90;;;;;;;18.53;64.67;100172.23;130214;1266;108983;-75
2022/07/22 00:16:22;;;;;;;6.90;4.30;;;;;;;18.48;64.76;100164.77;130207;1267;108812;-73
2022/07/22 00:19:27;;;;;;;7.70;4.80;;;;;;;18.47;64.99;100165.15;130217;1267;108579;-72
2022/07/22 00:22:33;;;;;;;5.60;4.50;;;;;;;18.48;65.11;100163.45;130228;1267;108849;-69
2022/07/22 00:25:39;;;;;;;6.40;4.80;;;;;;;18.50;65.28;100161.50;130104;1267;108727;-70
2022/07/22 00:28:44;;;;;;;5.90;4.50;;;;;;;18.52;65.20;100160.51;130090;1267;108638;-70
2022/07/22 00:31:50;;;;;;;5.90;5.00;;;;;;;18.53;65.18;100159.09;130095;1267;109529;-71
2022/07/22 00:34:55;;;;;;;5.20;4.40;;;;;;;18.53;65.35;100159.55;130262;1267;108675;-70
2022/07/22 00:38:01;;;;;;;7.90;4.90;;;;;;;18.58;65.44;100165.83;130116;1267;108673;-69
2022/07/22 00:41:07;;;;;;;6.70;5.00;;;;;;;18.61;65.40;100172.59;130100;1267;108693;-69
2022/07/22 00:44:12;;;;;;;7.90;5.30;;;;;;;18.61;65.38;100183.95;130072;1267;108578;-70
2022/07/22 00:47:18;;;;;;;7.70;5.10;;;;;;;18.46;66.69;100225.55;130082;1267;109195;-71
2022/07/22 00:50:23;;;;;;;7.00;4.20;;;;;;;18.30;66.85;100244.67;130098;1267;108648;-69
2022/07/22 00:53:28;;;;;;;9.10;4.60;;;;;;;18.43;66.42;100243.80;130102;1267;108959;-69
2022/07/22 00:56:34;;;;;;;6.90;4.70;;;;;;;18.63;66.16;100229.77;130079;1266;108791;-69
2022/07/22 00:59:40;;;;;;;7.70;5.30;;;;;;;18.72;66.84;100248.77;130081;1267;108629;-70
2022/07/22 01:02:47;;;;;;;8.50;5.00;;;;;;;18.71;67.20;100256.98;130124;1267;108710;-70
2022/07/22 01:05:52;;;;;;;7.10;4.60;;;;;;;18.78;66.82;100239.06;130130;1267;108659;-69
2022/07/22 01:08:58;;;;;;;7.00;4.30;;;;;;;19.00;66.67;100222.61;130107;1266;108608;-71
2022/07/22 01:12:04;;;;;;;6.70;4.90;;;;;;;19.16;66.30;100223.83;130116;1267;108771;-71
2022/07/22 01:15:12;;;;;;;5.80;4.40;;;;;;;19.20;66.06;100227.08;130157;1267;108658;-69
2022/07/22 01:18:17;;;;;;;8.10;4.70;;;;;;;19.17;66.11;100237.98;130097;1267;108690;-70
2022/07/22 01:21:23;;;;;;;6.70;4.90;;;;;;;19.09;66.36;100248.64;130124;1267;108888;-70
2022/07/22 01:24:29;;;;;;;7.70;4.60;;;;;;;18.95;66.60;100247.33;130205;1267;108807;-71
2022/07/22 01:27:35;;;;;;;7.10;4.70;;;;;;;18.95;66.61;100244.80;130088;1267;108845;-70
2022/07/22 01:30:41;;;;;;;8.80;4.80;;;;;;;18.97;66.64;100248.16;130091;1267;108626;-72
2022/07/22 01:33:46;;;;;;;6.10;4.40;;;;;;;18.99;66.72;100242.45;130249;1267;107668;-71
2022/07/22 01:36:52;;;;;;;5.80;4.20;;;;;;;18.97;66.68;100236.17;130224;1267;108606;-71
2022/07/22 01:39:57;;;;;;;6.50;4.90;;;;;;;18.94;66.67;100225.32;130221;1267;108537;-73
2022/07/22 01:43:03;;;;;;;6.30;4.20;;;;;;;18.90;66.69;100230.89;130188;1267;109458;-73
2022/07/22 01:46:08;;;;;;;6.00;4.20;;;;;;;18.85;66.62;100220.69;130237;1267;108497;-71
2022/07/22 01:49:17;;;;;;;8.00;4.50;;;;;;;18.78;66.81;100206.25;130252;1267;108717;-71
2022/07/22 01:52:22;;;;;;;5.80;4.50;;;;;;;18.70;66.75;100202.20;130224;1267;108079;-71
2022/07/22 01:55:28;;;;;;;6.20;4.90;;;;;;;18.61;66.85;100196.89;130236;1267;109471;-71
2022/07/22 01:58:33;;;;;;;5.70;4.20;;;;;;;18.53;66.89;100198.25;130195;1267;108825;-71
2022/07/22 02:01:39;;;;;;;6.00;4.50;;;;;;;18.45;67.01;100193.59;130186;1267;108836;-72
2022/07/22 02:04:44;;;;;;;5.80;4.80;;;;;;;18.44;67.07;100191.42;130118;1267;107361;-71
2022/07/22 02:07:50;;;;;;;6.20;4.90;;;;;;;18.45;67.10;100185.52;130281;1267;109069;-71
2022/07/22 02:10:57;;;;;;;7.00;5.00;;;;;;;18.40;67.05;100182.98;130186;1267;108701;-71
2022/07/22 02:14:02;;;;;;;6.60;4.70;;;;;;;18.34;67.28;100186.34;130275;1267;108686;-72
2022/07/22 02:17:08;;;;;;;6.60;4.90;;;;;;;18.26;67.33;100198.13;130215;1267;108662;-71
2022/07/22 02:20:14;;;;;;;8.90;5.20;;;;;;;18.17;67.38;100207.58;130204;1267;108823;-72
2022/07/22 02:23:20;;;;;;;6.90;5.20;;;;;;;17.97;67.33;100213.96;130219;1267;108592;-72
2022/07/22 02:26:26;;;;;;;8.10;5.00;;;;;;;17.88;67.62;100214.73;130183;1267;108678;-71
2022/07/22 02:29:32;;;;;;;9.50;5.40;;;;;;;17.87;67.79;100217.95;130205;1267;108982;-72
2022/07/22 02:32:38;;;;;;;7.00;4.70;;;;;;;17.78;67.86;100227.30;130295;1267;108711;-73
2022/07/22 02:35:43;;;;;;;7.60;5.10;;;;;;;17.77;68.05;100222.95;130212;1267;108675;-72
2022/07/22 02:38:49;;;;;;;6.30;5.00;;;;;;;17.83;68.08;100216.38;130247;1267;108684;-71
2022/07/22 02:41:54;;;;;;;6.80;5.10;;;;;;;17.85;67.97;100209.15;130097;1266;108803;-70
2022/07/22 02:45:00;;;;;;;8.70;5.70;;;;;;;17.87;68.32;100209.60;130074;1267;109122;-69
2022/07/22 02:48:06;;;;;;;7.40;5.00;;;;;;;17.91;68.08;100209.50;130069;1266;108557;-72
2022/07/22 02:51:12;;;;;;;7.00;4.40;;;;;;;17.90;68.07;100207.09;130214;1267;109620;-71
2022/07/22 02:54:17;;;;;;;7.30;5.10;;;;;;;17.90;68.32;100219.67;130181;1267;108557;-72
2022/07/22 02:57:23;;;;;;;8.30;5.40;;;;;;;18.01;68.45;100212.27;130259;1267;107642;-71
2022/07/22 03:00:28;;;;;;;6.60;5.10;;;;;;;18.20;68.02;100200.23;130204;1266;108676;-71
2022/07/22 03:03:34;;;;;;;6.60;5.20;;;;;;;18.26;67.87;100210.80;130208;1267;108648;-71
2022/07/22 03:06:41;;;;;;;6.40;5.10;;;;;;;18.30;68.24;100206.02;130295;1267;108795;-71
2022/07/22 03:09:50;;;;;;;6.50;5.30;;;;;;;18.43;67.91;100199.27;130344;1267;108620;-71
2022/07/22 03:12:56;;;;;;;6.80;5.30;;;;;;;18.45;67.81;100204.77;130239;1267;108713;-71
2022/07/22 03:16:01;;;;;;;7.90;5.20;;;;;;;18.44;67.90;100208.30;130267;1267;108682;-71
2022/07/22 03:19:08;;;;;;;6.10;5.40;;;;;;;18.51;67.89;100197.95;130262;1267;108733;-71
2022/07/22 03:22:14;;;;;;;7.50;4.90;;;;;;;18.50;67.86;100203.85;130288;1267;108719;-72
2022/07/22 03:25:19;;;;;;;8.10;4.80;;;;;;;18.50;67.82;100199.41;130268;1267;108846;-71
2022/07/22 03:28:27;;;;;;;5.90;5.20;;;;;;;18.57;67.83;100205.08;130174;1267;107653;-71
2022/07/22 03:31:32;;;;;;;5.50;5.00;;;;;;;18.58;67.78;100207.45;130238;1267;108958;-71
2022/07/22 03:34:38;;;;;;;9.30;5.50;;;;;;;18.64;67.86;100201.66;130182;1267;107689;-71
2022/07/22 03:37:46;;;;;;;7.00;5.20;;;;;;;18.71;67.84;100203.62;130097;1267;108728;-71
2022/07/22 03:40:51;;;;;;;6.20;5.30;;;;;;;18.76;67.80;100205.90;130096;1267;108752;-71
2022/07/22 03:43:56;;;;;;;6.70;5.20;;;;;;;18.76;67.79;100203.33;130210;1267;108664;-71
2022/07/22 03:47:02;;;;;;;5.60;5.00;;;;;;;18.84;67.77;100203.98;130203;1267;108765;-72
2022/07/22 03:50:09;;;;;;;5.60;4.50;;;;;;;18.91;67.79;100205.81;130137;1267;108754;-71
2022/07/22 03:53:14;;;;;;;6.00;4.60;;;;;;;19.03;67.78;100202.96;130300;1267;108955;-71
2022/07/22 03:56:21;;;;;;;5.00;4.20;;;;;;;19.15;67.76;100201.11;130297;1267;108947;-71
2022/07/22 03:59:27;;;;;;;7.60;5.20;;;;;;;19.32;67.50;100203.30;130109;1267;108743;-70
2022/07/22 04:02:32;;;;;;;7.20;5.00;;;;;;;19.49;67.49;100200.91;130124;1266;108697;-71
2022/07/22 04:05:38;;;;;;;5.50;5.00;;;;;;;19.71;67.43;100195.89;130091;1267;108679;-71
2022/07/22 04:08:43;;;;;;;5.40;4.50;;;;;;;19.93;67.39;100196.68;130164;1267;108509;-70
2022/07/22 04:11:50;;;;;;;6.20;4.90;;;;;;;20.13;67.18;100198.00;130238;1267;108693;-71
2022/07/22 04:14:57;;;;;;;7.10;5.20;;;;;;;20.30;67.05;100201.06;130225;1267;108730;-70
2022/07/22 04:18:03;;;;;;;6.00;4.90;;;;;;;20.43;67.07;100195.17;130074;1267;108702;-71
2022/07/22 04:21:09;;;;;;;8.00;5.10;;;;;;;20.60;66.98;100195.69;130132;1267;108757;-71
2022/07/22 04:24:28;;;;;;;7.00;5.10;;;;;;;20.82;66.96;100192.73;130252;1267;108786;-71
2022/07/22 04:27:34;;;;;;;7.40;5.10;;;;;;;21.07;66.95;100186.95;130264;1266;108644;-71
2022/07/22 04:30:39;;;;;;;6.20;5.00;;;;;;;21.30;66.86;100183.99;130164;1267;108792;-71
2022/07/22 04:33:45;;;;;;;6.90;5.30;;;;;;;21.55;66.65;100187.17;130233;1267;108777;-71
2022/07/22 04:36:50;;;;;;;7.70;6.00;;;;;;;21.72;66.48;100183.00;130245;1267;108630;-72
2022/07/22 04:39:56;;;;;;;6.50;5.70;;;;;;;21.90;66.39;100183.05;130273;1267;107778;-71
2022/07/22 04:43:02;;;;;;;7.80;5.70;;;;;;;22.09;66.27;100184.73;130121;1266;108714;-71
2022/07/22 04:46:07;;;;;;;6.10;5.00;;;;;;;22.29;66.18;100182.43;130192;1267;107463;-71
2022/07/22 04:49:14;;;;;;;6.10;5.00;;;;;;;22.50;65.76;100181.11;130272;1267;108830;-72
2022/07/22 04:52:19;;;;;;;8.80;5.80;;;;;;;22.70;65.66;100177.79;130194;1267;108741;-72
2022/07/22 04:55:27;;;;;;;6.30;5.60;;;;;;;22.90;65.36;100177.23;130247;1267;108664;-71
2022/07/22 04:58:32;;;;;;;50.10;18.30;;;;;;;23.10;65.21;100183.45;130238;1267;108642;-72
2022/07/22 05:01:39;;;;;;;19.90;9.20;;;;;;;23.25;65.01;100183.61;130371;1267;108722;-71
2022/07/22 05:04:44;;;;;;;9.00;7.00;;;;;;;23.39;64.55;100186.16;130314;1267;108672;-72
2022/07/22 05:07:50;;;;;;;8.50;6.20;;;;;;;23.55;64.66;100186.04;130257;1267;108711;-72
2022/07/22 05:10:55;;;;;;;10.40;5.90;;;;;;;23.67;64.28;100184.62;130196;1267;108779;-71
2022/07/22 05:14:01;;;;;;;9.80;5.50;;;;;;;23.81;64.15;100179.57;130244;1267;108731;-72
2022/07/22 05:17:12;;;;;;;7.10;5.30;;;;;;;23.93;63.96;100186.90;130234;1267;108749;-71
2022/07/22 05:20:22;;;;;;;7.90;5.40;;;;;;;24.03;63.67;100186.48;130148;1268;108673;-74
2022/07/22 05:23:27;;;;;;;7.10;5.40;;;;;;;24.11;63.47;100189.03;130156;1268;108670;-69
2022/07/22 05:26:33;;;;;;;6.60;5.60;;;;;;;24.21;63.28;100192.55;130065;1268;108381;-69
2022/07/22 05:29:39;;;;;;;8.10;5.50;;;;;;;24.30;63.00;100200.89;130043;1268;108869;-69
2022/07/22 05:32:45;;;;;;;9.40;5.90;;;;;;;24.39;62.69;100205.30;130038;1268;108653;-69
2022/07/22 05:35:51;;;;;;;9.10;6.40;;;;;;;24.44;62.51;100206.80;130032;1268;108668;-69
2022/07/22 05:38:57;;;;;;;7.50;6.30;;;;;;;24.48;61.97;100214.11;130063;1268;108700;-70
2022/07/22 05:42:03;;;;;;;10.00;6.80;;;;;;;24.54;62.07;100218.35;130045;1268;108712;-70
2022/07/22 05:45:10;;;;;;;9.40;7.40;;;;;;;24.63;61.86;100220.02;129997;1268;108736;-71
2022/07/22 05:48:16;;;;;;;9.90;7.80;;;;;;;24.68;61.28;100216.13;130075;1268;108943;-71
2022/07/22 05:51:22;;;;;;;10.60;8.30;;;;;;;24.73;61.52;100221.34;130061;1268;108651;-71
2022/07/22 05:54:28;;;;;;;10.00;8.10;;;;;;;24.78;61.06;100221.09;130055;1268;108693;-70
2022/07/22 05:57:34;;;;;;;11.80;8.60;;;;;;;24.84;61.26;100221.46;130145;1267;108931;-70
2022/07/22 06:00:42;;;;;;;16.10;9.60;;;;;;;24.92;61.01;100229.44;130179;1267;107667;-71
2022/07/22 06:03:47;;;;;;;12.70;9.50;;;;;;;24.98;60.91;100228.73;130078;1267;108697;-70
2022/07/22 06:06:53;;;;;;;13.70;9.60;;;;;;;24.97;60.25;100225.61;130340;1267;108932;-70
2022/07/22 06:09:59;;;;;;;13.40;10.10;;;;;;;24.99;60.40;100237.36;130332;1267;108795;-70
2022/07/22 06:13:04;;;;;;;13.50;11.00;;;;;;;25.01;60.08;100240.02;130236;1267;108817;-71
2022/07/22 06:16:10;;;;;;;12.30;10.60;;;;;;;25.03;60.62;100242.68;130272;1267;108698;-70
2022/07/22 06:19:18;;;;;;;12.40;11.10;;;;;;;25.04;60.49;100235.44;130174;1267;108795;-70
2022/07/22 06:22:24;;;;;;;12.60;11.00;;;;;;;25.06;60.31;100238.30;130153;1266;108679;-70
2022/07/22 06:25:29;;;;;;;13.80;11.10;;;;;;;25.08;60.39;100233.80;130031;1267;106899;-70
2022/07/22 06:28:35;;;;;;;13.50;11.90;;;;;;;25.11;60.21;100240.61;130073;1267;108650;-70
2022/07/22 06:31:41;;;;;;;14.90;11.50;;;;;;;25.10;60.30;100240.48;130169;1267;108790;-70
2022/07/22 06:34:47;;;;;;;16.30;13.50;;;;;;;25.16;60.41;100239.87;130097;1267;108666;-70
2022/07/22 06:37:53;;;;;;;16.00;12.60;;;;;;;25.13;59.64;100241.95;130198;1267;108457;-70
2022/07/22 06:40:59;;;;;;;18.00;13.70;;;;;;;25.09;59.42;100238.07;130165;1267;107535;-70
2022/07/22 06:44:30;;;;;;;19.60;13.40;;;;;;;25.05;59.49;100239.42;130137;1267;108683;-70
2022/07/22 06:48:14;;;;;;;17.40;12.60;;;;;;;25.08;59.73;100243.52;129497;1274;108620;-70
2022/07/22 06:51:19;;;;;;;13.90;12.50;;;;;;;25.18;59.52;100243.55;129430;1275;109028;-70
2022/07/22 06:54:25;;;;;;;14.80;12.50;;;;;;;25.25;59.55;100235.11;130027;1270;108790;-70
2022/07/22 06:57:34;;;;;;;15.10;12.60;;;;;;;25.33;58.93;100232.45;130112;1267;108655;-70
2022/07/22 07:00:40;;;;;;;14.30;12.30;;;;;;;25.36;58.98;100227.07;130159;1267;108695;-70
2022/07/22 07:04:08;;;;;;;15.20;11.90;;;;;;;25.46;58.50;100228.14;130149;1267;107895;-71
2022/07/22 07:07:14;;;;;;;15.40;12.00;;;;;;;25.54;58.33;100223.98;130165;1267;108647;-70
2022/07/22 07:10:31;;;;;;;13.60;11.90;;;;;;;25.63;58.37;100224.80;130145;1267;108772;-70
2022/07/22 07:13:48;;;;;;;14.20;11.30;;;;;;;25.74;58.02;100226.36;130155;1267;108957;-70
2022/07/22 07:16:53;;;;;;;14.50;11.80;;;;;;;25.91;58.32;100226.25;130088;1267;108556;-70
2022/07/22 07:19:59;;;;;;;12.80;11.50;;;;;;;26.05;57.97;100225.89;130074;1267;107458;-70
2022/07/22 07:23:05;;;;;;;12.60;10.90;;;;;;;26.17;57.15;100224.92;130166;1267;108693;-70
2022/07/22 07:26:14;;;;;;;15.00;10.90;;;;;;;26.26;56.47;100221.95;130166;1267;108707;-71
2022/07/22 07:29:20;;;;;;;12.60;11.20;;;;;;;26.35;56.76;100219.20;130169;1267;108698;-70
2022/07/22 07:32:25;;;;;;;11.60;10.40;;;;;;;26.49;55.89;100221.79;130221;1267;109124;-70
2022/07/22 07:35:31;;;;;;;14.70;10.70;;;;;;;26.62;56.23;100229.92;130227;1267;108862;-70
2022/07/22 07:38:37;;;;;;;12.90;10.70;;;;;;;26.73;55.80;100233.03;130085;1267;108673;-70
2022/07/22 07:41:44;;;;;;;12.50;10.20;;;;;;;26.79;54.68;100235.42;130056;1267;107165;-72
2022/07/22 07:44:50;;;;;;;11.80;10.60;;;;;;;26.80;54.02;100228.33;130105;1267;108873;-70
2022/07/22 07:47:56;;;;;;;11.10;10.00;;;;;;;26.89;54.40;100234.52;130140;1267;108759;-71
2022/07/22 07:51:01;;;;;;;11.60;10.50;;;;;;;27.02;54.07;100229.58;130076;1267;108640;-70
2022/07/22 07:54:07;;;;;;;12.90;10.10;;;;;;;27.13;54.17;100229.49;130090;1267;108641;-70
2022/07/22 07:57:13;;;;;;;11.30;10.20;;;;;;;27.19;53.72;100229.86;130183;1267;108785;-70
2022/07/22 08:00:21;;;;;;;10.80;9.70;;;;;;;27.17;53.41;100231.34;130216;1267;108675;-70
2022/07/22 08:03:27;;;;;;;13.40;10.50;;;;;;;27.12;52.94;100228.83;130236;1267;108668;-70
2022/07/22 08:06:32;;;;;;;11.40;10.20;;;;;;;26.97;52.85;100228.94;130087;1267;109110;-70
2022/07/22 08:09:38;;;;;;;14.00;10.70;;;;;;;26.88;52.98;100234.02;130143;1267;108859;-70
2022/07/22 08:12:51;;;;;;;11.90;10.70;;;;;;;26.85;53.65;100231.44;130165;1267;108758;-70
2022/07/22 08:16:19;;;;;;;11.50;10.10;;;;;;;26.97;53.91;100224.95;130079;1268;108738;-71
2022/07/22 08:19:25;;;;;;;11.00;9.80;;;;;;;27.09;53.67;100215.49;130085;1268;108976;-70
2022/07/22 08:22:31;;;;;;;11.70;10.10;;;;;;;27.23;53.77;100220.10;130072;1268;108706;-70
2022/07/22 08:25:37;;;;;;;12.90;11.30;;;;;;;27.35;53.33;100223.36;130153;1267;108787;-70
2022/07/22 08:28:42;;;;;;;13.20;10.60;;;;;;;27.39;53.63;100228.20;130128;1267;108812;-70
2022/07/22 08:31:48;;;;;;;11.90;10.70;;;;;;;27.45;53.00;100227.36;130214;1267;107659;-70
2022/07/22 08:34:55;;;;;;;13.50;10.90;;;;;;;27.61;53.64;100228.64;130208;1267;108619;-70
2022/07/22 08:38:01;;;;;;;11.10;10.10;;;;;;;27.78;52.18;100225.42;130194;1267;108675;-70
2022/07/22 08:41:08;;;;;;;12.30;10.70;;;;;;;27.87;51.54;100237.36;130191;1267;108690;-70
2022/07/22 08:44:15;;;;;;;11.50;10.40;;;;;;;27.97;51.84;100234.80;130270;1267;108665;-70
2022/07/22 08:47:24;;;;;;;11.40;10.00;;;;;;;28.05;51.32;100232.67;130181;1267;108665;-72
2022/07/22 08:50:53;;;;;;;10.40;9.40;;;;;;;28.17;51.67;100240.73;129951;1267;107751;-71
2022/07/22 08:54:19;;;;;;;10.60;9.50;;;;;;;28.29;50.15;100250.95;130204;1267;108631;-70
2022/07/22 08:57:24;;;;;;;10.30;9.20;;;;;;;28.26;50.25;100249.86;130040;1267;108680;-70
2022/07/22 09:00:30;;;;;;;10.20;9.10;;;;;;;28.29;50.36;100247.72;130145;1267;108660;-70
2022/07/22 09:03:51;;;;;;;11.10;9.20;;;;;;;28.29;49.33;100248.36;130055;1267;108811;-70
2022/07/22 09:06:55;;;;;;;;;;;;;;;28.29;49.89;100243.61;130118;1267;108684;-70
2022/07/22 09:10:02;;;;;;;10.10;8.70;;;;;;;28.37;49.69;100245.55;129756;1267;509516;-70
2022/07/22 09:13:27;;;;;;;9.90;8.90;;;;;;;28.37;49.22;100247.19;130088;1267;108658;-71
2022/07/22 09:16:52;;;;;;;11.30;9.80;;;;;;;28.37;48.76;100246.25;130128;1267;108687;-70
2022/07/22 09:20:20;;;;;;;10.10;9.10;;;;;;;28.33;49.28;100234.98;130222;1267;109005;-70
2022/07/22 09:23:44;;;;;;;10.00;8.90;;;;;;;28.36;49.05;100231.26;130195;1267;107470;-70
2022/07/22 09:26:51;;;;;;;9.10;8.00;;;;;;;28.38;48.39;100230.05;130219;1267;108770;-70
2022/07/22 09:30:16;;;;;;;10.20;8.80;;;;;;;28.40;47.94;100230.94;130157;1267;107420;-70
2022/07/22 09:33:29;;;;;;;10.20;9.30;;;;;;;28.42;47.01;100226.27;130146;1267;108702;-70
2022/07/22 09:40:18;;;;;;;9.60;8.60;;;;;;;28.53;48.04;100219.61;126142;1306;636219;-70
2022/07/22 09:43:25;;;;;;;10.60;8.90;;;;;;;28.57;48.09;100217.15;129106;1280;108712;-70
2022/07/22 09:46:38;;;;;;;11.30;9.40;;;;;;;28.65;47.62;100223.15;129072;1280;108869;-70
2022/07/22 09:49:58;;;;;;;9.60;8.70;;;;;;;28.70;48.24;100226.05;129102;1280;108743;-71
2022/07/22 09:53:38;;;;;;;10.10;8.80;;;;;;;28.80;47.93;100228.97;128928;1280;280118;-71
2022/07/22 09:56:47;;;;;;;10.80;9.70;;;;;;;28.86;47.77;100232.97;129149;1278;108742;-71
2022/07/22 09:59:56;;;;;;;9.40;8.50;;;;;;;28.92;47.07;100234.66;129114;1277;108710;-70
2022/07/22 10:03:25;;;;;;;9.80;8.90;;;;;;;29.02;47.32;100228.89;129143;1277;108692;-70
2022/07/22 10:06:31;;;;;;;11.00;8.30;;;;;;;29.13;47.23;100237.68;129210;1278;108801;-71
2022/07/22 10:09:38;;;;;;;9.30;8.30;;;;;;;29.20;47.27;100231.63;129124;1278;108734;-70
2022/07/22 10:12:49;;;;;;;11.20;9.20;;;;;;;29.27;46.67;100230.30;129101;1280;108725;-71
2022/07/22 10:15:55;;;;;;;9.70;8.60;;;;;;;29.27;46.89;100228.05;129502;1277;108786;-70
2022/07/22 10:19:02;;;;;;;10.20;8.90;;;;;;;29.33;46.92;100231.93;129200;1277;108688;-70
2022/07/22 10:22:49;;;;;;;10.20;8.40;;;;;;;29.34;46.95;100233.08;129549;1277;107663;-70
2022/07/22 10:25:58;;;;;;;11.40;8.30;;;;;;;29.38;46.48;100230.83;129444;1277;108650;-70
2022/07/22 10:29:26;;;;;;;8.80;7.90;;;;;;;29.40;46.03;100231.15;129425;1276;108665;-70
2022/07/22 10:32:32;;;;;;;9.10;8.20;;;;;;;29.55;46.55;100220.82;129618;1276;109492;-71
2022/07/22 10:35:53;;;;;;;9.60;8.20;;;;;;;29.59;45.83;100224.98;129502;1277;108820;-70
2022/07/22 10:39:07;;;;;;;9.60;8.00;;;;;;;29.51;45.75;100230.13;129502;1276;108944;-70
2022/07/22 10:42:12;;;;;;;9.70;7.90;;;;;;;29.55;45.96;100222.03;129553;1277;108637;-70
2022/07/22 10:45:19;;;;;;;8.90;7.90;;;;;;;29.67;45.00;100222.91;129515;1275;108855;-70
2022/07/22 10:48:44;;;;;;;8.40;7.20;;;;;;;29.79;45.11;100217.39;129546;1276;108773;-71
2022/07/22 10:52:16;;;;;;;8.80;7.40;;;;;;;29.86;44.53;100214.11;129385;1277;108678;-70
2022/07/22 10:55:23;;;;;;;8.00;7.20;;;;;;;29.90;44.57;100212.44;129383;1277;108696;-70
2022/07/22 10:58:53;;;;;;;8.60;7.30;;;;;;;29.92;43.63;100210.89;129438;1276;108865;-70
2022/07/22 11:01:58;;;;;;;9.20;8.00;;;;;;;29.86;43.63;100213.30;129367;1277;108582;-70
2022/07/22 11:05:05;;;;;;;8.60;7.50;;;;;;;29.88;43.98;100208.65;129412;1277;108883;-70
2022/07/22 11:08:13;;;;;;;8.20;7.30;;;;;;;29.96;44.11;100206.80;129394;1276;108729;-70
2022/07/22 11:11:19;;;;;;;8.30;7.50;;;;;;;30.01;43.65;100201.87;129442;1276;108695;-71
2022/07/22 11:14:28;;;;;;;9.40;7.00;;;;;;;30.09;44.02;100205.78;129564;1276;108855;-70
2022/07/22 11:17:34;;;;;;;9.00;8.10;;;;;;;30.18;43.12;100209.15;129462;1277;108782;-70
2022/07/22 11:20:40;;;;;;;8.60;7.20;;;;;;;30.10;41.72;100207.98;129388;1276;108666;-71
2022/07/22 11:23:47;;;;;;;7.70;7.00;;;;;;;30.03;42.19;100205.33;129385;1277;108761;-71
2022/07/22 11:26:54;;;;;;;9.80;7.50;;;;;;;30.07;42.42;100208.22;129537;1277;108704;-70
2022/07/22 11:30:00;;;;;;;7.60;6.80;;;;;;;30.15;42.01;100206.69;129508;1277;108844;-70
2022/07/22 11:33:06;;;;;;;7.80;6.90;;;;;;;30.12;41.38;100210.16;129553;1277;108676;-70
2022/07/22 11:36:12;;;;;;;7.70;6.90;;;;;;;30.03;42.00;100212.88;129571;1276;108649;-71
2022/07/22 11:39:23;;;;;;;8.60;7.30;;;;;;;30.10;41.25;100215.91;129430;1277;108690;-70
2022/07/22 11:42:28;;;;;;;8.00;7.20;;;;;;;30.15;40.83;100214.17;129424;1277;108680;-70
2022/07/22 11:45:34;;;;;;;9.20;7.10;;;;;;;30.11;41.10;100216.90;129329;1277;108709;-71
2022/07/22 11:48:39;;;;;;;7.40;6.70;;;;;;;30.01;41.75;100215.45;129336;1277;108979;-70
2022/07/22 11:51:45;;;;;;;7.80;7.00;;;;;;;30.11;42.00;100208.58;129456;1276;108722;-71
2022/07/22 11:54:50;;;;;;;9.40;7.20;;;;;;;30.14;41.32;100209.33;129484;1277;109189;-70
2022/07/22 11:57:56;;;;;;;9.20;6.90;;;;;;;30.13;41.42;100207.75;129379;1277;108719;-70
2022/07/22 12:01:01;;;;;;;7.40;6.60;;;;;;;30.26;41.99;100209.77;129533;1277;108961;-70
2022/07/22 12:04:08;;;;;;;7.60;6.90;;;;;;;30.45;42.16;100201.49;129382;1277;108739;-70
2022/07/22 12:07:15;;;;;;;8.30;7.00;;;;;;;30.61;41.83;100197.14;129404;1277;108721;-71
2022/07/22 12:10:21;;;;;;;7.30;6.60;;;;;;;30.69;40.85;100196.45;129521;1277;108731;-70
2022/07/22 12:13:32;;;;;;;9.30;7.00;;;;;;;30.70;40.94;100196.71;129521;1276;108722;-70
2022/07/22 12:16:38;;;;;;;7.10;6.30;;;;;;;30.70;41.20;100191.10;129461;1277;108556;-70
2022/07/22 12:19:44;;;;;;;7.40;6.50;;;;;;;30.76;40.81;100190.56;129431;1277;108766;-72
2022/07/22 12:22:49;;;;;;;7.10;6.30;;;;;;;30.78;40.35;100190.48;129526;1276;108704;-71
2022/07/22 12:26:00;;;;;;;7.40;6.70;;;;;;;30.72;39.90;100191.25;129461;1277;108719;-70
2022/07/22 12:29:17;;;;;;;8.60;6.70;;;;;;;30.69;39.81;100185.33;129391;1277;108430;-71
2022/07/22 12:32:28;;;;;;;7.40;6.60;;;;;;;30.70;40.01;100180.68;129352;1277;108475;-70
2022/07/22 12:35:32;;;;;;;;;;;;;;;30.79;39.78;100181.38;129527;1277;108552;-70
2022/07/22 12:38:37;;;;;;;7.80;7.00;;;;;;;30.80;39.75;100177.06;129383;1277;108615;-70
2022/07/22 12:41:50;;;;;;;11.50;7.30;;;;;;;30.75;39.79;100175.15;129581;1274;109073;-70
2022/07/22 12:45:02;;;;;;;8.40;7.40;;;;;;;30.75;39.68;100179.77;129641;1274;108930;-71
2022/07/22 12:48:13;;;;;;;8.80;7.00;;;;;;;30.70;39.51;100180.70;129613;1274;109323;-70
2022/07/22 12:51:18;;;;;;;8.40;7.60;;;;;;;30.55;39.93;100174.93;129679;1273;108657;-71
2022/07/22 12:54:23;;;;;;;10.90;7.30;;;;;;;30.52;39.74;100177.27;129574;1274;108793;-71
2022/07/22 12:57:29;;;;;;;7.40;6.70;;;;;;;30.58;40.10;100168.02;129597;1274;108748;-71
2022/07/22 13:00:36;;;;;;;9.00;7.30;;;;;;;30.68;40.21;100168.64;129630;1274;107685;-71
2022/07/22 13:03:42;;;;;;;7.30;6.70;;;;;;;30.83;39.93;100167.66;129592;1274;108764;-71
2022/07/22 13:06:47;;;;;;;7.30;6.60;;;;;;;30.99;39.86;100160.88;129570;1274;108835;-70
2022/07/22 13:09:53;;;;;;;6.90;6.20;;;;;;;31.07;39.00;100158.91;129574;1274;108736;-71
2022/07/22 13:12:58;;;;;;;8.70;6.60;;;;;;;31.08;38.60;100159.89;129581;1274;108736;-71
2022/07/22 13:16:04;;;;;;;7.40;6.70;;;;;;;31.12;39.63;100155.34;129597;1274;108974;-71
2022/07/22 13:19:10;;;;;;;7.70;6.90;;;;;;;31.21;39.38;100154.90;129615;1274;107810;-71
2022/07/22 13:22:15;;;;;;;7.40;6.70;;;;;;;31.26;38.93;100149.15;129567;1274;108196;-71
2022/07/22 13:25:20;;;;;;;8.20;6.70;;;;;;;31.31;39.57;100142.44;129546;1274;109545;-70
2022/07/22 13:28:26;;;;;;;7.10;6.50;;;;;;;31.36;39.65;100144.36;129590;1274;108691;-70
2022/07/22 13:31:31;;;;;;;7.30;6.60;;;;;;;31.29;39.30;100145.38;129567;1274;108906;-70
2022/07/22 13:34:37;;;;;;;8.10;6.20;;;;;;;31.22;39.31;100148.55;129549;1274;108722;-70
2022/07/22 13:37:42;;;;;;;7.10;6.10;;;;;;;31.25;39.24;100144.16;129474;1277;109503;-70
2022/07/22 13:40:51;;;;;;;7.10;6.30;;;;;;;31.30;38.84;100145.20;129563;1277;107061;-70
2022/07/22 13:43:57;;;;;;;6.60;5.90;;;;;;;31.30;38.65;100141.45;129528;1277;108666;-69
2022/07/22 13:47:02;;;;;;;7.10;6.20;;;;;;;31.23;38.81;100143.52;129566;1276;110295;-70
2022/07/22 13:50:09;;;;;;;6.80;5.70;;;;;;;31.11;38.63;100148.29;129542;1277;108682;-72
2022/07/22 13:53:15;;;;;;;5.90;5.40;;;;;;;31.16;38.92;100145.54;129613;1274;109824;-70
2022/07/22 13:56:20;;;;;;;6.20;5.60;;;;;;;31.18;38.59;100143.02;129582;1274;108760;-69
2022/07/22 13:59:26;;;;;;;7.20;5.90;;;;;;;31.33;39.13;100144.44;129609;1274;108167;-70
2022/07/22 14:02:32;;;;;;;6.20;5.60;;;;;;;31.52;38.74;100143.08;129626;1274;108749;-70
2022/07/22 14:05:37;;;;;;;6.10;5.60;;;;;;;31.51;37.98;100142.93;129578;1274;108696;-71
2022/07/22 14:08:42;;;;;;;7.50;5.90;;;;;;;31.37;38.06;100147.48;129645;1274;109648;-71
2022/07/22 14:11:48;;;;;;;6.30;5.40;;;;;;;31.36;38.08;100145.24;129558;1274;108664;-70
2022/07/22 14:14:53;;;;;;;6.00;5.40;;;;;;;31.43;38.19;100141.56;130029;1271;108815;-70